Meteorología y climatología de Navarra
Datos de la estación - Meteo Navarra

Estación de Aguilar de Codés GN

Altitud 736 m.


Datos desde el 11/10/2018 hasta el 12/10/2018 en horario solar
Los datos son PROVISIONALES

Anterior Página 1 de 1 Siguiente Descargar: Formato para Excel 2000 o superior   Formato csv   Formato para OpenOffice Calc
Fecha Temperatura Humedad relativa Radiación global Insolación Precipitación Velocidad viento 10 m Velocidad viento 10 m Dirección viento 10 m
ºC % W/m² s l/m² m/s km/h º
11/10/2018 0:00 11.7 88 0.0 0 0.0 2.6 9.5 118
11/10/2018 0:10 11.7 90 0.0 0 0.0 2.6 9.4 119
11/10/2018 0:20 11.6 91 0.0 0 0.0 2.7 9.9 111
11/10/2018 0:30 11.7 92 0.0 0 0.0 3.1 11.3 113
11/10/2018 0:40 11.6 93 0.0 0 0.0 3.1 11.1 119
11/10/2018 0:50 11.6 93 0.0 0 0.0 3.1 11.3 119
11/10/2018 1:00 11.4 94 0.0 0 0.0 2.5 9.0 113
11/10/2018 1:10 11.4 94 0.0 0 0.0 2.5 9.1 107
11/10/2018 1:20 11.5 95 0.0 0 0.0 2.5 9.0 111
11/10/2018 1:30 11.6 95 0.0 0 0.0 2.9 10.4 115
11/10/2018 1:40 11.6 95 0.0 0 0.0 2.5 8.8 109
11/10/2018 1:50 11.8 95 0.0 0 0.0 2.3 8.4 123
11/10/2018 2:00 11.9 95 0.0 0 0.0 3.6 12.8 125
11/10/2018 2:10 12.0 95 0.0 0 0.0 2.6 9.3 117
11/10/2018 2:20 12.0 95 0.0 0 0.0 3.0 10.7 128
11/10/2018 2:30 12.0 96 0.0 0 0.0 3.4 12.2 136
11/10/2018 2:40 12.1 96 0.0 0 0.0 3.1 11.2 121
11/10/2018 2:50 12.0 96 0.0 0 0.0 2.7 9.6 129
11/10/2018 3:00 12.1 96 0.0 0 0.0 2.6 9.5 121
11/10/2018 3:10 12.2 97 0.0 0 0.0 3.1 11.2 105
11/10/2018 3:20 12.4 97 0.0 0 0.0 3.4 12.1 109
11/10/2018 3:30 12.2 97 0.0 0 0.0 3.4 12.1 108
11/10/2018 3:40 12.3 97 0.0 0 0.0 3.4 12.2 106
11/10/2018 3:50 12.2 97 0.0 0 0.0 3.2 11.6 104
11/10/2018 4:00 12.3 97 0.0 0 0.0 3.0 10.9 102
11/10/2018 4:10 12.2 97 0.0 0 0.0 4.1 14.7 101
11/10/2018 4:20 12.2 98 0.0 0 0.0 3.0 10.9 110
11/10/2018 4:30 12.2 98 0.0 0 0.0 2.4 8.6 113
11/10/2018 4:40 12.3 98 0.0 0 0.0 1.8 6.6 122
11/10/2018 4:50 12.2 98 0.0 0 0.0 1.8 6.6 112
11/10/2018 5:00 12.1 98 0.0 0 0.0 1.9 6.8 89
11/10/2018 5:10 12.1 98 0.0 0 0.0 2.8 10.2 91
11/10/2018 5:20 12.1 98 0.0 0 0.0 2.5 8.9 96
11/10/2018 5:30 12.1 97 0.0 0 0.0 3.3 11.9 97
11/10/2018 5:40 12.1 97 0.0 0 0.0 3.1 11.1 89
11/10/2018 5:50 12.2 97 0.0 0 0.0 2.5 9.1 95
11/10/2018 6:00 12.1 97 0.0 0 0.0 2.9 10.3 98
11/10/2018 6:10 12.2 97 0.0 0 0.0 3.6 12.9 106
11/10/2018 6:20 12.1 97 0.0 0 0.0 3.4 12.3 100
11/10/2018 6:30 12.2 97 0.0 0 0.0 3.2 11.7 97
11/10/2018 6:40 12.1 97 0.0 0 0.0 3.1 11.0 97
11/10/2018 6:50 12.3 97 0.0 0 0.0 3.3 11.8 98
11/10/2018 7:00 12.3 97 14.3 0 0.0 3.6 13.1 98
11/10/2018 7:10 12.2 96 20.4 0 0.0 3.4 12.2 97
11/10/2018 7:20 12.3 96 23.4 0 0.0 2.9 10.3 108
11/10/2018 7:30 12.3 95 37.5 0 0.0 3.6 13.1 100
11/10/2018 7:40 12.4 95 46.6 0 0.0 3.6 13.0 108
11/10/2018 7:50 12.6 95 45.8 0 0.0 2.6 9.2 115
11/10/2018 8:00 12.6 94 47.6 0 0.0 3.7 13.2 106
11/10/2018 8:10 12.7 94 49.7 0 0.0 3.9 14.1 107
11/10/2018 8:20 12.7 94 54.7 0 0.0 4.0 14.3 115
11/10/2018 8:30 12.9 94 105.9 0 0.0 2.9 10.4 123
11/10/2018 8:40 13.2 92 91.9 0 0.0 3.4 12.2 111
11/10/2018 8:50 13.2 92 101.1 0 0.0 3.3 11.7 106
11/10/2018 9:00 13.4 91 129.9 0 0.0 4.0 14.5 114
11/10/2018 9:10 13.6 90 157.0 0 0.0 3.4 12.4 117
11/10/2018 9:20 14.1 89 173.9 0 0.0 3.6 13.0 112
11/10/2018 9:30 14.2 87 174.7 0 0.0 4.1 14.7 110
11/10/2018 9:40 14.6 86 150.4 0 0.0 4.3 15.5 108
11/10/2018 9:50 14.9 84 197.5 0 0.0 4.3 15.3 108
11/10/2018 10:00 15.4 82 272.9 190 0.0 4.9 17.6 100
11/10/2018 10:10 15.7 80 280.4 74 0.0 4.9 17.5 94
11/10/2018 10:20 15.8 79 279.4 172 0.0 4.9 17.6 94
11/10/2018 10:30 15.8 80 137.0 0 0.0 5.0 17.8 100
11/10/2018 10:40 15.0 86 171.2 0 0.1 4.5 16.3 99
11/10/2018 10:50 14.8 89 170.1 0 0.0 4.1 14.9 105
11/10/2018 11:00 15.1 88 217.1 0 0.0 4.6 16.4 103
11/10/2018 11:10 15.6 85 167.9 0 0.0 4.9 17.6 106
11/10/2018 11:20 15.8 82 129.8 0 0.0 5.4 19.3 108
11/10/2018 11:30 16.0 81 212.7 0 0.0 4.4 16.0 123
11/10/2018 11:40 16.7 80 366.1 394 0.0 4.7 16.9 107
11/10/2018 11:50 17.1 77 379.7 520 0.0 4.6 16.5 99
11/10/2018 12:00 17.4 75 273.9 34 0.0 4.3 15.6 92
11/10/2018 12:10 17.3 76 158.3 0 0.0 4.8 17.3 96
11/10/2018 12:20 17.1 75 104.4 0 0.0 5.0 17.9 102
11/10/2018 12:30 17.2 75 92.2 0 0.0 4.3 15.3 104
11/10/2018 12:40 17.3 75 161.0 64 0.0 3.8 13.7 100
11/10/2018 12:50 17.7 77 405.3 220 0.0 3.8 13.8 102
11/10/2018 13:00 18.6 75 562.5 450 0.0 3.8 13.5 99
11/10/2018 13:10 19.6 69 668.5 584 0.0 3.9 13.9 97
11/10/2018 13:20 19.9 66 256.7 86 0.0 3.5 12.7 94
11/10/2018 13:30 19.3 68 122.2 0 0.0 3.6 13.0 95
11/10/2018 13:40 19.1 68 122.2 0 0.0 3.7 13.5 103
11/10/2018 13:50 19.2 66 81.2 0 0.0 3.4 12.3 101
11/10/2018 14:00 19.4 66 61.7 0 0.0 3.1 11.2 123
11/10/2018 14:10 18.5 77 113.7 0 0.3 3.6 13.0 146
11/10/2018 14:20 17.4 85 92.4 0 0.1 2.2 7.8 129
11/10/2018 14:30 17.2 87 66.2 0 0.0 1.5 5.5 98
11/10/2018 14:40 17.1 86 40.3 0 1.7 1.1 3.9 152
11/10/2018 14:50 16.6 91 59.1 0 2.3 2.4 8.7 121
11/10/2018 15:00 16.3 94 249.8 330 0.0 2.5 9.0 99
11/10/2018 15:10 16.6 96 173.6 26 0.0 1.2 4.1 126
11/10/2018 15:20 16.7 96 158.9 0 0.1 0.8 3.0 62
11/10/2018 15:30 16.5 95 163.0 0 0.0 0.9 3.4 147
11/10/2018 15:40 16.7 95 139.2 0 0.0 0.7 2.6 173
11/10/2018 15:50 16.7 93 81.6 0 0.0 0.3 1.0 324
11/10/2018 16:00 16.7 93 117.4 0 0.0 0.5 1.7 201
11/10/2018 16:10 16.9 93 93.0 0 0.0 0.5 1.9 274
11/10/2018 16:20 16.8 93 83.3 0 0.0 0.8 2.8 233
11/10/2018 16:30 16.8 94 74.0 0 0.0 1.3 4.8 234
11/10/2018 16:40 16.6 92 61.6 0 0.0 1.0 3.5 234
11/10/2018 16:50 16.6 92 42.5 0 0.0 1.3 4.8 233
11/10/2018 17:00 16.4 93 37.9 0 0.0 1.0 3.7 238
11/10/2018 17:10 16.4 93 31.5 0 0.0 0.5 1.7 248
11/10/2018 17:20 16.1 93 19.3 0 0.0 0.6 2.1 325
11/10/2018 17:30 16.1 94 2.9 0 0.0 1.2 4.2 236
11/10/2018 17:40 15.9 92 0.0 0 0.0 0.6 2.2 233
11/10/2018 17:50 15.8 91 0.0 0 0.0 0.8 3.0 269
11/10/2018 18:00 15.7 93 0.0 0 0.0 0.8 2.8 279
11/10/2018 18:10 15.8 93 0.0 0 0.0 0.6 2.2 286
11/10/2018 18:20 15.7 91 0.0 0 0.0 1.4 4.9 240
11/10/2018 18:30 15.8 90 0.0 0 0.0 1.0 3.7 278
11/10/2018 18:40 15.5 92 0.0 0 0.0 2.7 9.8 313
11/10/2018 18:50 15.6 94 0.0 0 0.0 1.5 5.5 296
11/10/2018 19:00 15.5 95 0.0 0 0.0 1.1 4.1 240
11/10/2018 19:10 15.2 94 0.0 0 0.0 1.0 3.5 217
11/10/2018 19:20 15.2 92 0.0 0 0.0 0.9 3.2 301
11/10/2018 19:30 14.8 94 0.0 0 0.0 0.7 2.5 338
11/10/2018 19:40 14.4 96 0.0 0 0.0 1.3 4.8 317
11/10/2018 19:50 14.6 96 0.0 0 0.0 0.7 2.4 303
11/10/2018 20:00 14.3 96 0.0 0 0.0 0.8 2.9 308
11/10/2018 20:10 14.1 96 0.0 0 0.0 1.0 3.7 307
11/10/2018 20:20 14.6 93 0.0 0 0.0 0.9 3.2 316
11/10/2018 20:30 14.7 92 0.0 0 0.0 1.1 3.8 304
11/10/2018 20:40 14.7 92 0.0 0 0.0 0.9 3.1 326
11/10/2018 20:50 15.1 92 0.0 0 0.0 0.3 1.2 246
11/10/2018 21:00 15.2 91 0.0 0 0.0 0.2 0.8 99
11/10/2018 21:10 14.9 92 0.0 0 0.0 0.9 3.1 347
11/10/2018 21:20 15.0 93 0.0 0 0.0 0.5 1.9 324
11/10/2018 21:30 15.2 92 0.0 0 0.0 0.6 2.2 41
11/10/2018 21:40 15.0 92 0.0 0 0.0 0.5 1.7 279
11/10/2018 21:50 15.0 92 0.0 0 0.0 0.3 1.1 243
11/10/2018 22:00 14.9 92 0.0 0 0.0 0.7 2.4 341
11/10/2018 22:10 14.5 94 0.0 0 0.0 1.2 4.2 328
11/10/2018 22:20 14.5 94 0.0 0 0.0 0.7 2.5 322
11/10/2018 22:30 14.6 93 0.0 0 0.0 1.0 3.5 308
11/10/2018 22:40 14.6 93 0.0 0 0.0 1.3 4.5 318
11/10/2018 22:50 14.3 94 0.0 0 0.0 1.1 3.9 321
11/10/2018 23:00 14.6 93 0.0 0 0.0 1.2 4.2 320
11/10/2018 23:10 14.5 93 0.0 0 0.0 0.8 2.9 312
11/10/2018 23:20 14.5 93 0.0 0 0.0 0.7 2.7 9
11/10/2018 23:30 14.4 94 0.0 0 0.0 0.9 3.2 9
11/10/2018 23:40 14.5 94 0.0 0 0.0 0.5 1.6 336
11/10/2018 23:50 14.7 93 0.0 0 0.0 1.0 3.7 339
Anterior Página 1 de 1 Siguiente

NOTA: Tipo de datos según el color:
   - Valores diarios o 10 minutos correctos
   - Valores diarios calculados a partir de un número de datos 10 minutos menor que 144 y mayor que 120, o de un número de datos semihorarios menor que 48 y mayor que 40 (caso de las estaciones de Riegos de Navarra y del MARM)
   - Valores diez minutos estimados


Contacto        Enlaces        Aviso legal